createdAt,value
2022-08-09T00:06:17.259Z,17.78
2022-08-09T00:25:23.287Z,17.76
2022-08-09T00:45:20.348Z,17.75
2022-08-09T01:05:21.943Z,17.75
2022-08-09T01:25:21.929Z,17.74
2022-08-09T01:45:20.226Z,17.71
2022-08-09T02:05:20.200Z,17.68
2022-08-09T02:25:20.179Z,17.66
2022-08-09T02:45:20.150Z,17.65
2022-08-09T03:05:20.150Z,17.64
2022-08-09T03:46:03.516Z,17.57
2022-08-09T04:05:26.868Z,17.55
2022-08-09T05:05:31.672Z,17.47
2022-08-09T05:45:19.946Z,17.45
2022-08-09T07:25:19.789Z,17.33
2022-08-09T07:45:23.144Z,17.3
2022-08-09T09:05:19.675Z,17.24
2022-08-09T09:26:00.283Z,17.22
2022-08-09T09:45:25.684Z,17.2
2022-08-09T10:05:21.701Z,17.18
2022-08-09T10:25:20.789Z,17.16
2022-08-09T10:45:19.761Z,17.15
2022-08-09T11:05:24.772Z,17.14
2022-08-09T11:25:19.453Z,17.14
2022-08-09T11:45:19.426Z,17.14
2022-08-09T12:05:22.819Z,17.14
2022-08-09T12:25:32.186Z,17.14
2022-08-09T12:45:32.830Z,17.14
2022-08-09T13:05:19.326Z,17.15
2022-08-09T13:25:19.327Z,17.16
2022-08-09T13:45:19.552Z,17.2
2022-08-09T14:05:56.369Z,17.24
2022-08-09T14:25:19.274Z,17.25
2022-08-09T14:46:39.238Z,17.29
2022-08-09T15:05:18.591Z,17.34
2022-08-09T15:25:39.460Z,17.35
2022-08-09T15:45:21.371Z,17.42
2022-08-09T16:05:19.171Z,17.45
2022-08-09T16:25:30.515Z,17.52
2022-08-09T16:45:19.138Z,17.55
2022-08-09T17:05:19.902Z,17.63
2022-08-09T17:25:19.065Z,17.65
2022-08-09T17:45:23.694Z,17.73
2022-08-09T18:05:19.019Z,17.76
2022-08-09T18:25:19.563Z,17.83
2022-08-09T18:45:21.418Z,17.86
2022-08-09T19:05:20.754Z,17.9
2022-08-09T19:25:27.230Z,17.95
2022-08-09T19:45:18.864Z,17.96
2022-08-09T20:25:22.526Z,18.05
2022-08-09T20:45:57.970Z,18.06
2022-08-09T21:05:50.528Z,18.06
2022-08-09T21:25:20.747Z,18.07
2022-08-09T22:05:23.128Z,18.09
2022-08-09T22:26:04.758Z,18.09
2022-08-09T22:48:06.947Z,18.09
2022-08-09T23:25:18.543Z,18.08
2022-08-09T23:45:36.787Z,18.07
